sensor_id;sensor_type;location;lat;lon;timestamp;pressure;altitude;pressure_sealevel;temperature
49785;BMP280;35679;38.732;-121.358;2023-11-19T00:00:30;100955.59;;;19.98
49785;BMP280;35679;38.732;-121.358;2023-11-19T00:03:19;100964.66;;;19.97
49785;BMP280;35679;38.732;-121.358;2023-11-19T00:06:09;100962.22;;;19.96
49785;BMP280;35679;38.732;-121.358;2023-11-19T00:09:00;100963.03;;;19.96
49785;BMP280;35679;38.732;-121.358;2023-11-19T00:11:49;100959.53;;;19.96
49785;BMP280;35679;38.732;-121.358;2023-11-19T00:14:42;100977.47;;;19.95
49785;BMP280;35679;38.732;-121.358;2023-11-19T00:17:31;100980.97;;;19.96
49785;BMP280;35679;38.732;-121.358;2023-11-19T00:20:21;100979.09;;;19.96
49785;BMP280;35679;38.732;-121.358;2023-11-19T00:23:13;100986.53;;;19.94
49785;BMP280;35679;38.732;-121.358;2023-11-19T00:26:03;100982.00;;;19.95
49785;BMP280;35679;38.732;-121.358;2023-11-19T00:28:57;100990.28;;;19.93
49785;BMP280;35679;38.732;-121.358;2023-11-19T00:31:47;100995.81;;;19.92
49785;BMP280;35679;38.732;-121.358;2023-11-19T00:34:37;100989.44;;;19.93
49785;BMP280;35679;38.732;-121.358;2023-11-19T00:37:26;100995.81;;;19.92
49785;BMP280;35679;38.732;-121.358;2023-11-19T00:40:15;101002.81;;;19.93
49785;BMP280;35679;38.732;-121.358;2023-11-19T00:43:07;100996.66;;;19.92
49785;BMP280;35679;38.732;-121.358;2023-11-19T00:45:56;100995.16;;;19.96
49785;BMP280;35679;38.732;-121.358;2023-11-19T00:48:45;100980.28;;;20.00
49785;BMP280;35679;38.732;-121.358;2023-11-19T00:51:36;100980.50;;;19.99
49785;BMP280;35679;38.732;-121.358;2023-11-19T00:54:25;100975.63;;;19.96
49785;BMP280;35679;38.732;-121.358;2023-11-19T00:57:15;100974.56;;;19.97
49785;BMP280;35679;38.732;-121.358;2023-11-19T01:00:07;100977.22;;;19.97
49785;BMP280;35679;38.732;-121.358;2023-11-19T01:03:08;100970.25;;;19.96
49785;BMP280;35679;38.732;-121.358;2023-11-19T01:05:57;100963.50;;;19.93
49785;BMP280;35679;38.732;-121.358;2023-11-19T01:08:48;100972.09;;;19.95
49785;BMP280;35679;38.732;-121.358;2023-11-19T01:11:38;100989.19;;;19.94
49785;BMP280;35679;38.732;-121.358;2023-11-19T01:14:28;100996.66;;;19.92
49785;BMP280;35679;38.732;-121.358;2023-11-19T01:17:17;101006.34;;;19.93
49785;BMP280;35679;38.732;-121.358;2023-11-19T01:20:07;100990.47;;;19.92
49785;BMP280;35679;38.732;-121.358;2023-11-19T01:23:00;100991.31;;;19.92
49785;BMP280;35679;38.732;-121.358;2023-11-19T01:25:50;100994.97;;;19.91
49785;BMP280;35679;38.732;-121.358;2023-11-19T01:28:40;101013.72;;;19.91
49785;BMP280;35679;38.732;-121.358;2023-11-19T01:31:34;101017.25;;;19.92
49785;BMP280;35679;38.732;-121.358;2023-11-19T01:34:23;101023.63;;;19.91
49785;BMP280;35679;38.732;-121.358;2023-11-19T01:37:13;101030.84;;;19.90
49785;BMP280;35679;38.732;-121.358;2023-11-19T01:40:03;101033.50;;;19.90
49785;BMP280;35679;38.732;-121.358;2023-11-19T01:42:54;101026.50;;;19.89
49785;BMP280;35679;38.732;-121.358;2023-11-19T01:45:44;101040.75;;;19.90
49785;BMP280;35679;38.732;-121.358;2023-11-19T01:48:34;101039.91;;;19.89
49785;BMP280;35679;38.732;-121.358;2023-11-19T01:51:28;101035.59;;;19.88
49785;BMP280;35679;38.732;-121.358;2023-11-19T01:54:18;101036.41;;;19.89
49785;BMP280;35679;38.732;-121.358;2023-11-19T01:57:07;101055.97;;;19.89
49785;BMP280;35679;38.732;-121.358;2023-11-19T01:59:58;101057.03;;;19.88
49785;BMP280;35679;38.732;-121.358;2023-11-19T02:02:48;101060.75;;;19.87
49785;BMP280;35679;38.732;-121.358;2023-11-19T02:05:39;101066.09;;;19.87
49785;BMP280;35679;38.732;-121.358;2023-11-19T02:08:29;101066.09;;;19.87
49785;BMP280;35679;38.732;-121.358;2023-11-19T02:11:21;101070.63;;;19.87
49785;BMP280;35679;38.732;-121.358;2023-11-19T02:14:11;101074.31;;;19.86
49785;BMP280;35679;38.732;-121.358;2023-11-19T02:17:01;101065.50;;;19.85
49785;BMP280;35679;38.732;-121.358;2023-11-19T02:19:51;101062.00;;;19.85
49785;BMP280;35679;38.732;-121.358;2023-11-19T02:22:41;101068.38;;;19.84
49785;BMP280;35679;38.732;-121.358;2023-11-19T02:25:32;101075.41;;;19.85
49785;BMP280;35679;38.732;-121.358;2023-11-19T02:28:22;101083.41;;;19.85
49785;BMP280;35679;38.732;-121.358;2023-11-19T02:31:12;101075.59;;;19.83
49785;BMP280;35679;38.732;-121.358;2023-11-19T02:34:01;101079.09;;;19.84
49785;BMP280;35679;38.732;-121.358;2023-11-19T02:36:51;101071.28;;;19.82
49785;BMP280;35679;38.732;-121.358;2023-11-19T02:39:42;101066.75;;;19.83
49785;BMP280;35679;38.732;-121.358;2023-11-19T02:42:31;101068.63;;;19.82
49785;BMP280;35679;38.732;-121.358;2023-11-19T02:45:23;101079.31;;;19.82
49785;BMP280;35679;38.732;-121.358;2023-11-19T02:48:13;101081.16;;;19.82
49785;BMP280;35679;38.732;-121.358;2023-11-19T02:51:04;101079.31;;;19.82
49785;BMP280;35679;38.732;-121.358;2023-11-19T02:53:58;101087.56;;;19.81
49785;BMP280;35679;38.732;-121.358;2023-11-19T02:56:48;101094.78;;;19.80
49785;BMP280;35679;38.732;-121.358;2023-11-19T02:59:44;101099.09;;;19.81
49785;BMP280;35679;38.732;-121.358;2023-11-19T03:02:33;101097.47;;;19.80
49785;BMP280;35679;38.732;-121.358;2023-11-19T03:05:22;101093.75;;;19.81
49785;BMP280;35679;38.732;-121.358;2023-11-19T03:08:13;101100.34;;;19.79
49785;BMP280;35679;38.732;-121.358;2023-11-19T03:11:10;101108.16;;;19.80
49785;BMP280;35679;38.732;-121.358;2023-11-19T03:14:00;101117.22;;;19.79
49785;BMP280;35679;38.732;-121.358;2023-11-19T03:16:49;101104.06;;;19.78
49785;BMP280;35679;38.732;-121.358;2023-11-19T03:19:40;101088.81;;;19.78
49785;BMP280;35679;38.732;-121.358;2023-11-19T03:22:29;101079.16;;;19.77
49785;BMP280;35679;38.732;-121.358;2023-11-19T03:25:20;101106.75;;;19.78
49785;BMP280;35679;38.732;-121.358;2023-11-19T03:28:09;101099.50;;;19.78
49785;BMP280;35679;38.732;-121.358;2023-11-19T03:31:00;101098.09;;;19.76
49785;BMP280;35679;38.732;-121.358;2023-11-19T03:33:49;101124.88;;;19.76
49785;BMP280;35679;38.732;-121.358;2023-11-19T03:36:38;101129.19;;;19.77
49785;BMP280;35679;38.732;-121.358;2023-11-19T03:39:30;101134.56;;;19.77
49785;BMP280;35679;38.732;-121.358;2023-11-19T03:42:20;101148.97;;;19.76
49785;BMP280;35679;38.732;-121.358;2023-11-19T03:45:09;101151.66;;;19.76
49785;BMP280;35679;38.732;-121.358;2023-11-19T03:47:59;101148.16;;;19.75
49785;BMP280;35679;38.732;-121.358;2023-11-19T03:50:48;101153.53;;;19.75
49785;BMP280;35679;38.732;-121.358;2023-11-19T03:53:38;101167.94;;;19.74
49785;BMP280;35679;38.732;-121.358;2023-11-19T03:56:27;101175.75;;;19.76
49785;BMP280;35679;38.732;-121.358;2023-11-19T03:59:17;101180.28;;;19.75
49785;BMP280;35679;38.732;-121.358;2023-11-19T04:02:09;101192.88;;;19.75
49785;BMP280;35679;38.732;-121.358;2023-11-19T04:04:59;101192.03;;;19.74
49785;BMP280;35679;38.732;-121.358;2023-11-19T04:07:48;101195.75;;;19.73
49785;BMP280;35679;38.732;-121.358;2023-11-19T04:10:38;101200.28;;;19.73
49785;BMP280;35679;38.732;-121.358;2023-11-19T04:13:27;101193.91;;;19.74
49785;BMP280;35679;38.732;-121.358;2023-11-19T04:16:17;101185.25;;;19.72
49785;BMP280;35679;38.732;-121.358;2023-11-19T04:19:06;101194.13;;;19.73
49785;BMP280;35679;38.732;-121.358;2023-11-19T04:21:56;101180.75;;;19.73
49785;BMP280;35679;38.732;-121.358;2023-11-19T04:24:46;101194.31;;;19.71
49785;BMP280;35679;38.732;-121.358;2023-11-19T04:27:36;101210.38;;;19.71
49785;BMP280;35679;38.732;-121.358;2023-11-19T04:30:25;101200.50;;;19.72
49785;BMP280;35679;38.732;-121.358;2023-11-19T04:33:15;101205.25;;;19.70
49785;BMP280;35679;38.732;-121.358;2023-11-19T04:36:05;101219.47;;;19.70
49785;BMP280;35679;38.732;-121.358;2023-11-19T04:38:55;101234.69;;;19.70
49785;BMP280;35679;38.732;-121.358;2023-11-19T04:41:48;101245.41;;;19.70
49785;BMP280;35679;38.732;-121.358;2023-11-19T04:44:38;101261.47;;;19.70
49785;BMP280;35679;38.732;-121.358;2023-11-19T04:47:28;101265.19;;;19.69
49785;BMP280;35679;38.732;-121.358;2023-11-19T04:50:17;101275.88;;;19.69
49785;BMP280;35679;38.732;-121.358;2023-11-19T04:53:06;101278.56;;;19.69
49785;BMP280;35679;38.732;-121.358;2023-11-19T04:55:56;101281.47;;;19.67
49785;BMP280;35679;38.732;-121.358;2023-11-19T04:58:45;101288.69;;;19.67
49785;BMP280;35679;38.732;-121.358;2023-11-19T05:01:35;101294.84;;;19.67
49785;BMP280;35679;38.732;-121.358;2023-11-19T05:04:24;101294.03;;;19.67
49785;BMP280;35679;38.732;-121.358;2023-11-19T05:07:14;101299.41;;;19.67
49785;BMP280;35679;38.732;-121.358;2023-11-19T05:10:04;101303.91;;;19.66
49785;BMP280;35679;38.732;-121.358;2023-11-19T05:12:55;101310.31;;;19.65
49785;BMP280;35679;38.732;-121.358;2023-11-19T05:15:45;101321.84;;;19.66
49785;BMP280;35679;38.732;-121.358;2023-11-19T05:18:34;101318.94;;;19.67
49785;BMP280;35679;38.732;-121.358;2023-11-19T05:21:23;101346.16;;;19.64
49785;BMP280;35679;38.732;-121.358;2023-11-19T05:24:13;101359.53;;;19.64
49785;BMP280;35679;38.732;-121.358;2023-11-19T05:27:02;101369.81;;;19.67
49785;BMP280;35679;38.732;-121.358;2023-11-19T05:29:52;101370.03;;;19.66
49785;BMP280;35679;38.732;-121.358;2023-11-19T05:32:41;101370.03;;;19.66
49785;BMP280;35679;38.732;-121.358;2023-11-19T05:35:32;101375.38;;;19.66
49785;BMP280;35679;38.732;-121.358;2023-11-19T05:38:21;101376.41;;;19.65
49785;BMP280;35679;38.732;-121.358;2023-11-19T05:41:10;101387.13;;;19.65
49785;BMP280;35679;38.732;-121.358;2023-11-19T05:44:00;101400.50;;;19.65
49785;BMP280;35679;38.732;-121.358;2023-11-19T05:46:49;101414.94;;;19.64
49785;BMP280;35679;38.732;-121.358;2023-11-19T05:49:38;101428.31;;;19.64
49785;BMP280;35679;38.732;-121.358;2023-11-19T05:52:28;101441.69;;;19.64
49785;BMP280;35679;38.732;-121.358;2023-11-19T05:55:22;101471.16;;;19.64
49785;BMP280;35679;38.732;-121.358;2023-11-19T05:58:13;101488.25;;;19.63
49785;BMP280;35679;38.732;-121.358;2023-11-19T06:01:04;101490.09;;;19.62
49785;BMP280;35679;38.732;-121.358;2023-11-19T06:03:56;101490.31;;;19.61
49785;BMP280;35679;38.732;-121.358;2023-11-19T06:06:46;101482.28;;;19.61
49785;BMP280;35679;38.732;-121.358;2023-11-19T06:09:35;101480.63;;;19.60
49785;BMP280;35679;38.732;-121.358;2023-11-19T06:12:24;101452.22;;;19.59
49785;BMP280;35679;38.732;-121.358;2023-11-19T06:15:16;101463.34;;;19.56
49785;BMP280;35679;38.732;-121.358;2023-11-19T06:18:05;101467.69;;;19.57
49785;BMP280;35679;38.732;-121.358;2023-11-19T06:20:55;101440.28;;;19.55
49785;BMP280;35679;38.732;-121.358;2023-11-19T06:23:44;101450.16;;;19.54
49785;BMP280;35679;38.732;-121.358;2023-11-19T06:26:33;101461.69;;;19.55
49785;BMP280;35679;38.732;-121.358;2023-11-19T06:29:23;101481.47;;;19.54
49785;BMP280;35679;38.732;-121.358;2023-11-19T06:32:12;101487.84;;;19.53
49785;BMP280;35679;38.732;-121.358;2023-11-19T06:35:02;101493.19;;;19.53
49785;BMP280;35679;38.732;-121.358;2023-11-19T06:37:53;101490.72;;;19.51
49785;BMP280;35679;38.732;-121.358;2023-11-19T06:40:43;101521.19;;;19.50
49785;BMP280;35679;38.732;-121.358;2023-11-19T06:43:33;101530.06;;;19.51
49785;BMP280;35679;38.732;-121.358;2023-11-19T06:46:25;101522.25;;;19.49
49785;BMP280;35679;38.732;-121.358;2023-11-19T06:49:14;101517.91;;;19.48
49785;BMP280;35679;38.732;-121.358;2023-11-19T06:52:04;101524.50;;;19.46
49785;BMP280;35679;38.732;-121.358;2023-11-19T06:54:54;101529.84;;;19.46
49785;BMP280;35679;38.732;-121.358;2023-11-19T06:57:55;101561.13;;;19.45
49785;BMP280;35679;38.732;-121.358;2023-11-19T07:00:44;101568.56;;;19.43
49785;BMP280;35679;38.732;-121.358;2023-11-19T07:03:36;101577.41;;;19.44
49785;BMP280;35679;38.732;-121.358;2023-11-19T07:06:25;101589.13;;;19.43
49785;BMP280;35679;38.732;-121.358;2023-11-19T07:09:17;101598.22;;;19.42
49785;BMP280;35679;38.732;-121.358;2023-11-19T07:12:07;101597.38;;;19.41
49785;BMP280;35679;38.732;-121.358;2023-11-19T07:14:56;101611.34;;;19.37
49785;BMP280;35679;38.732;-121.358;2023-11-19T07:17:46;101617.56;;;19.37
49785;BMP280;35679;38.732;-121.358;2023-11-19T07:20:49;101619.59;;;19.35
49785;BMP280;35679;38.732;-121.358;2023-11-19T07:23:39;101624.94;;;19.35
49785;BMP280;35679;38.732;-121.358;2023-11-19T07:26:28;101623.50;;;19.33
49785;BMP280;35679;38.732;-121.358;2023-11-19T07:29:17;101639.75;;;19.31
49785;BMP280;35679;38.732;-121.358;2023-11-19T07:32:09;101650.69;;;19.30
49785;BMP280;35679;38.732;-121.358;2023-11-19T07:34:59;101652.50;;;19.29
49785;BMP280;35679;38.732;-121.358;2023-11-19T07:37:48;101664.06;;;19.30
49785;BMP280;35679;38.732;-121.358;2023-11-19T07:40:39;101671.44;;;19.28
49785;BMP280;35679;38.732;-121.358;2023-11-19T07:43:46;101681.13;;;19.29
49785;BMP280;35679;38.732;-121.358;2023-11-19T07:46:35;101694.94;;;19.26
49785;BMP280;35679;38.732;-121.358;2023-11-19T07:49:24;101701.28;;;19.25
49785;BMP280;35679;38.732;-121.358;2023-11-19T07:52:14;101703.34;;;19.23
49785;BMP280;35679;38.732;-121.358;2023-11-19T07:55:06;101706.84;;;19.23
49785;BMP280;35679;38.732;-121.358;2023-11-19T07:57:56;101718.38;;;19.24
49785;BMP280;35679;38.732;-121.358;2023-11-19T08:00:45;101721.25;;;19.22
49785;BMP280;35679;38.732;-121.358;2023-11-19T08:03:34;101726.81;;;19.21
49785;BMP280;35679;38.732;-121.358;2023-11-19T08:06:24;101741.22;;;19.20
49785;BMP280;35679;38.732;-121.358;2023-11-19T08:09:14;101746.56;;;19.20
49785;BMP280;35679;38.732;-121.358;2023-11-19T08:12:04;101739.75;;;19.17
49785;BMP280;35679;38.732;-121.358;2023-11-19T08:14:57;101738.09;;;19.16
49785;BMP280;35679;38.732;-121.358;2023-11-19T08:17:47;101745.28;;;19.16
49785;BMP280;35679;38.732;-121.358;2023-11-19T08:20:36;101742.81;;;19.14
49785;BMP280;35679;38.732;-121.358;2023-11-19T08:23:26;101748.38;;;19.13
49785;BMP280;35679;38.732;-121.358;2023-11-19T08:26:17;101756.38;;;19.13
49785;BMP280;35679;38.732;-121.358;2023-11-19T08:29:08;101763.78;;;19.11
49785;BMP280;35679;38.732;-121.358;2023-11-19T08:32:00;101773.88;;;19.09
49785;BMP280;35679;38.732;-121.358;2023-11-19T08:34:50;101781.88;;;19.09
49785;BMP280;35679;38.732;-121.358;2023-11-19T08:37:40;101769.69;;;19.07
49785;BMP280;35679;38.732;-121.358;2023-11-19T08:40:29;101779.56;;;19.06
49785;BMP280;35679;38.732;-121.358;2023-11-19T08:43:19;101773.41;;;19.06
49785;BMP280;35679;38.732;-121.358;2023-11-19T08:46:11;101778.94;;;19.04
49785;BMP280;35679;38.732;-121.358;2023-11-19T08:49:01;101785.50;;;19.02
49785;BMP280;35679;38.732;-121.358;2023-11-19T08:51:50;101782.00;;;19.01
49785;BMP280;35679;38.732;-121.358;2023-11-19T08:54:42;101786.72;;;18.99
49785;BMP280;35679;38.732;-121.358;2023-11-19T08:57:32;101791.06;;;19.00
49785;BMP280;35679;38.732;-121.358;2023-11-19T09:00:21;101795.78;;;18.98
49785;BMP280;35679;38.732;-121.358;2023-11-19T09:03:11;101808.13;;;18.99
49785;BMP280;35679;38.732;-121.358;2023-11-19T09:06:00;101814.69;;;18.97
49785;BMP280;35679;38.732;-121.358;2023-11-19T09:08:50;101811.38;;;18.95
49785;BMP280;35679;38.732;-121.358;2023-11-19T09:11:40;101828.44;;;18.94
49785;BMP280;35679;38.732;-121.358;2023-11-19T09:14:30;101834.00;;;18.92
49785;BMP280;35679;38.732;-121.358;2023-11-19T09:17:19;101828.00;;;18.90
49785;BMP280;35679;38.732;-121.358;2023-11-19T09:20:09;101822.03;;;18.88
49785;BMP280;35679;38.732;-121.358;2023-11-19T09:23:01;101823.06;;;18.87
49785;BMP280;35679;38.732;-121.358;2023-11-19T09:25:50;101838.66;;;18.84
49785;BMP280;35679;38.732;-121.358;2023-11-19T09:28:40;101840.50;;;18.83
49785;BMP280;35679;38.732;-121.358;2023-11-19T09:31:29;101844.84;;;18.84
49785;BMP280;35679;38.732;-121.358;2023-11-19T09:34:18;101840.88;;;18.80
49785;BMP280;35679;38.732;-121.358;2023-11-19T09:37:07;101844.59;;;18.79
49785;BMP280;35679;38.732;-121.358;2023-11-19T09:39:59;101871.97;;;18.81
49785;BMP280;35679;38.732;-121.358;2023-11-19T09:42:49;101872.81;;;18.82
49785;BMP280;35679;38.732;-121.358;2023-11-19T09:45:49;101875.84;;;18.79
49785;BMP280;35679;38.732;-121.358;2023-11-19T09:48:39;101891.88;;;18.79
49785;BMP280;35679;38.732;-121.358;2023-11-19T09:51:31;101892.28;;;18.76
49785;BMP280;35679;38.732;-121.358;2023-11-19T09:54:20;101888.16;;;18.73
49785;BMP280;35679;38.732;-121.358;2023-11-19T09:57:10;101890.81;;;18.73
49785;BMP280;35679;38.732;-121.358;2023-11-19T10:00:01;101904.41;;;18.72
49785;BMP280;35679;38.732;-121.358;2023-11-19T10:02:54;101905.56;;;18.69
49785;BMP280;35679;38.732;-121.358;2023-11-19T10:05:44;101909.91;;;18.70
49785;BMP280;35679;38.732;-121.358;2023-11-19T10:08:34;101912.97;;;18.67
49785;BMP280;35679;38.732;-121.358;2023-11-19T10:11:23;101916.00;;;18.64
49785;BMP280;35679;38.732;-121.358;2023-11-19T10:14:14;101922.41;;;18.63
49785;BMP280;35679;38.732;-121.358;2023-11-19T10:17:04;101934.09;;;18.62
49785;BMP280;35679;38.732;-121.358;2023-11-19T10:19:53;101927.91;;;18.62
49785;BMP280;35679;38.732;-121.358;2023-11-19T10:22:43;101943.13;;;18.61
49785;BMP280;35679;38.732;-121.358;2023-11-19T10:25:33;101952.16;;;18.60
49785;BMP280;35679;38.732;-121.358;2023-11-19T10:28:25;101953.38;;;18.58
49785;BMP280;35679;38.732;-121.358;2023-11-19T10:31:15;101956.25;;;18.56
49785;BMP280;35679;38.732;-121.358;2023-11-19T10:34:24;101957.47;;;18.54
49785;BMP280;35679;38.732;-121.358;2023-11-19T10:37:30;101966.47;;;18.53
49785;BMP280;35679;38.732;-121.358;2023-11-19T10:40:21;101958.84;;;18.50
49785;BMP280;35679;38.732;-121.358;2023-11-19T10:43:10;101966.88;;;18.50
49785;BMP280;35679;38.732;-121.358;2023-11-19T10:46:10;101956.19;;;18.50
49785;BMP280;35679;38.732;-121.358;2023-11-19T10:49:00;101965.22;;;18.49
49785;BMP280;35679;38.732;-121.358;2023-11-19T10:51:50;101964.56;;;18.47
49785;BMP280;35679;38.732;-121.358;2023-11-19T10:54:43;101976.91;;;18.48
49785;BMP280;35679;38.732;-121.358;2023-11-19T10:57:36;101982.66;;;18.45
49785;BMP280;35679;38.732;-121.358;2023-11-19T11:00:39;101982.81;;;18.43
49785;BMP280;35679;38.732;-121.358;2023-11-19T11:03:37;101981.19;;;18.42
49785;BMP280;35679;38.732;-121.358;2023-11-19T11:06:29;101980.53;;;18.41
49785;BMP280;35679;38.732;-121.358;2023-11-19T11:09:20;101977.03;;;18.40
49785;BMP280;35679;38.732;-121.358;2023-11-19T11:12:11;101977.03;;;18.40
49785;BMP280;35679;38.732;-121.358;2023-11-19T11:15:03;101978.03;;;18.39
49785;BMP280;35679;38.732;-121.358;2023-11-19T11:17:59;101978.25;;;18.38
49785;BMP280;35679;38.732;-121.358;2023-11-19T11:20:54;101992.63;;;18.37
49785;BMP280;35679;38.732;-121.358;2023-11-19T11:27:40;101999.16;;;18.34
49785;BMP280;35679;38.732;-121.358;2023-11-19T11:39:57;102026.44;;;18.30
49785;BMP280;35679;38.732;-121.358;2023-11-19T11:42:50;102038.97;;;18.29
49785;BMP280;35679;38.732;-121.358;2023-11-19T11:45:43;102048.00;;;18.28
49785;BMP280;35679;38.732;-121.358;2023-11-19T11:48:35;102041.00;;;18.27
49785;BMP280;35679;38.732;-121.358;2023-11-19T11:54:34;102065.22;;;18.26
49785;BMP280;35679;38.732;-121.358;2023-11-19T11:57:36;102076.25;;;18.23
49785;BMP280;35679;38.732;-121.358;2023-11-19T12:03:20;102061.28;;;18.22
49785;BMP280;35679;38.732;-121.358;2023-11-19T12:06:11;102082.66;;;18.22
49785;BMP280;35679;38.732;-121.358;2023-11-19T12:09:00;102075.81;;;18.19
49785;BMP280;35679;38.732;-121.358;2023-11-19T12:12:07;102084.84;;;18.18
49785;BMP280;35679;38.732;-121.358;2023-11-19T12:15:02;102080.31;;;18.19
49785;BMP280;35679;38.732;-121.358;2023-11-19T12:17:55;102078.81;;;18.16
49785;BMP280;35679;38.732;-121.358;2023-11-19T12:20:44;102086.00;;;18.16
49785;BMP280;35679;38.732;-121.358;2023-11-19T12:23:34;102085.34;;;18.14
49785;BMP280;35679;38.732;-121.358;2023-11-19T12:26:37;102092.56;;;18.13
49785;BMP280;35679;38.732;-121.358;2023-11-19T12:29:27;102099.72;;;18.13
49785;BMP280;35679;38.732;-121.358;2023-11-19T12:32:16;102089.22;;;18.11
49785;BMP280;35679;38.732;-121.358;2023-11-19T12:35:07;102090.22;;;18.10
49785;BMP280;35679;38.732;-121.358;2023-11-19T12:38:00;102092.09;;;18.10
49785;BMP280;35679;38.732;-121.358;2023-11-19T12:41:09;102097.44;;;18.10
49785;BMP280;35679;38.732;-121.358;2023-11-19T12:44:10;102102.97;;;18.08
49785;BMP280;35679;38.732;-121.358;2023-11-19T12:47:05;102105.81;;;18.07
49785;BMP280;35679;38.732;-121.358;2023-11-19T12:49:58;102114.00;;;18.05
49785;BMP280;35679;38.732;-121.358;2023-11-19T12:52:57;102120.38;;;18.04
49785;BMP280;35679;38.732;-121.358;2023-11-19T12:55:47;102112.34;;;18.04
49785;BMP280;35679;38.732;-121.358;2023-11-19T12:58:37;102106.91;;;18.12
49785;BMP280;35679;38.732;-121.358;2023-11-19T13:01:27;102118.06;;;18.16
49785;BMP280;35679;38.732;-121.358;2023-11-19T13:04:19;102117.72;;;18.19
49785;BMP280;35679;38.732;-121.358;2023-11-19T13:07:08;102117.88;;;18.17
49785;BMP280;35679;38.732;-121.358;2023-11-19T13:10:02;102117.38;;;18.22
49785;BMP280;35679;38.732;-121.358;2023-11-19T13:13:02;102136.72;;;18.24
49785;BMP280;35679;38.732;-121.358;2023-11-19T13:15:53;102135.38;;;18.28
49785;BMP280;35679;38.732;-121.358;2023-11-19T13:18:42;102141.53;;;18.28
49785;BMP280;35679;38.732;-121.358;2023-11-19T13:21:32;102131.03;;;18.27
49785;BMP280;35679;38.732;-121.358;2023-11-19T13:24:21;102137.19;;;18.27
49785;BMP280;35679;38.732;-121.358;2023-11-19T13:27:11;102140.72;;;18.28
49785;BMP280;35679;38.732;-121.358;2023-11-19T13:30:04;102140.72;;;18.28
49785;BMP280;35679;38.732;-121.358;2023-11-19T13:33:14;102137.00;;;18.29
49785;BMP280;35679;38.732;-121.358;2023-11-19T13:36:04;102137.47;;;18.32
49785;BMP280;35679;38.732;-121.358;2023-11-19T13:39:01;102150.00;;;18.32
49785;BMP280;35679;38.732;-121.358;2023-11-19T13:41:52;102150.00;;;18.32
49785;BMP280;35679;38.732;-121.358;2023-11-19T13:45:00;102161.19;;;18.35
49785;BMP280;35679;38.732;-121.358;2023-11-19T13:47:50;102151.28;;;18.36
49785;BMP280;35679;38.732;-121.358;2023-11-19T13:50:40;102167.16;;;18.37
49785;BMP280;35679;38.732;-121.358;2023-11-19T13:53:31;102174.34;;;18.37
49785;BMP280;35679;38.732;-121.358;2023-11-19T13:56:38;102169.34;;;18.34
49785;BMP280;35679;38.732;-121.358;2023-11-19T13:59:28;102171.50;;;18.38
49785;BMP280;35679;38.732;-121.358;2023-11-19T14:02:17;102170.66;;;18.38
49785;BMP280;35679;38.732;-121.358;2023-11-19T14:05:08;102172.50;;;18.37
49785;BMP280;35679;38.732;-121.358;2023-11-19T14:07:57;102177.22;;;18.35
49785;BMP280;35679;38.732;-121.358;2023-11-19T14:10:47;102176.00;;;18.38
49785;BMP280;35679;38.732;-121.358;2023-11-19T14:13:36;102179.50;;;18.38
49785;BMP280;35679;38.732;-121.358;2023-11-19T14:16:27;102180.03;;;18.34
49785;BMP280;35679;38.732;-121.358;2023-11-19T14:19:16;102191.19;;;18.37
49785;BMP280;35679;38.732;-121.358;2023-11-19T14:22:06;102188.53;;;18.37
49785;BMP280;35679;38.732;-121.358;2023-11-19T14:24:55;102189.72;;;18.35
49785;BMP280;35679;38.732;-121.358;2023-11-19T14:27:45;102207.22;;;18.37
49785;BMP280;35679;38.732;-121.358;2023-11-19T14:30:35;102208.91;;;18.38
49785;BMP280;35679;38.732;-121.358;2023-11-19T14:33:24;102219.41;;;18.40
49785;BMP280;35679;38.732;-121.358;2023-11-19T14:36:15;102219.59;;;18.38
49785;BMP280;35679;38.732;-121.358;2023-11-19T14:39:04;102209.72;;;18.39
49785;BMP280;35679;38.732;-121.358;2023-11-19T14:41:56;102225.75;;;18.39
49785;BMP280;35679;38.732;-121.358;2023-11-19T14:44:50;102226.78;;;18.38
49785;BMP280;35679;38.732;-121.358;2023-11-19T14:47:40;102240.97;;;18.38
49785;BMP280;35679;38.732;-121.358;2023-11-19T14:50:29;102246.13;;;18.40
49785;BMP280;35679;38.732;-121.358;2023-11-19T14:53:19;102260.34;;;18.40
49785;BMP280;35679;38.732;-121.358;2023-11-19T14:56:12;102244.47;;;18.39
49785;BMP280;35679;38.732;-121.358;2023-11-19T14:59:01;102243.84;;;18.37
49785;BMP280;35679;38.732;-121.358;2023-11-19T15:01:51;102242.53;;;18.33
49785;BMP280;35679;38.732;-121.358;2023-11-19T15:04:40;102246.41;;;18.30
49785;BMP280;35679;38.732;-121.358;2023-11-19T15:07:33;102255.44;;;18.29
49785;BMP280;35679;38.732;-121.358;2023-11-19T15:10:25;102265.63;;;18.26
49785;BMP280;35679;38.732;-121.358;2023-11-19T15:13:14;102272.19;;;18.23
49785;BMP280;35679;38.732;-121.358;2023-11-19T15:16:04;102282.19;;;18.21
49785;BMP280;35679;38.732;-121.358;2023-11-19T15:19:00;102280.72;;;18.19
49785;BMP280;35679;38.732;-121.358;2023-11-19T15:21:53;102286.22;;;18.17
49785;BMP280;35679;38.732;-121.358;2023-11-19T15:24:44;102290.75;;;18.17
49785;BMP280;35679;38.732;-121.358;2023-11-19T15:27:33;102299.75;;;18.16
49785;BMP280;35679;38.732;-121.358;2023-11-19T15:30:23;102305.44;;;18.13
49785;BMP280;35679;38.732;-121.358;2023-11-19T15:33:14;102312.63;;;18.12
49785;BMP280;35679;38.732;-121.358;2023-11-19T15:36:05;102300.09;;;18.13
49785;BMP280;35679;38.732;-121.358;2023-11-19T15:38:56;102291.44;;;18.11
49785;BMP280;35679;38.732;-121.358;2023-11-19T15:41:46;102293.44;;;18.09
49785;BMP280;35679;38.732;-121.358;2023-11-19T15:44:36;102300.47;;;18.10
49785;BMP280;35679;38.732;-121.358;2023-11-19T15:47:25;102296.97;;;18.09
49785;BMP280;35679;38.732;-121.358;2023-11-19T15:50:15;102309.47;;;18.09